METAR Translator

Disclaimer: This is an experimental weather translator written in Javascript. It is not entirely finished and it may contain bugs. It is intended as an aid in translating weather reports only. Always cross-check the plain english translation with the original report. Void where prohibited by law. Contents may have settled during shipping.

Examples:

METAR KPIT 201955Z AUTO 22015G25KT 3/4SM R28R/2600FT TSRA OVC010CB
    18/16 A2992 RMK SLP013 T01760158

TAF KPIT 091730Z 091818 22020KT 3SM -SHRA BKN020
    FM2030 30015G25KT 3SM SHRA OVC015 TEMPO 2022 1/2SM TSRA OVC008CB
    FM0100 27008KT 5SM -SHRA BKN020 OVC040 PROB40 0407 00000KT 1SM -RA BR
    FM1000 22010KT 5SM -SHRA OVC020 BECMG 1315 20010KT P6SM NSW SKC

TAF KPIT 091730Z 1606/1624 22020KT 3SM -SHRA BKN020
    FM162030 30015G25KT 3SM SHRA OVC015 TEMPO 1620/1622 1/2SM TSRA OVC008CB
    FM160100 27008KT 5SM -SHRA BKN020 OVC040 PROB40 0407 00000KT 1SM -RA BR
    TEMPO 1623/1701 1/2SM TSRA OVC008CB
    FM161000 22010KT 5SM -SHRA OVC020 BECMG 1315 20010KT P6SM NSW SKC

Enter the METAR(s) or TAF(s) to be translated in this box. Multiple reports should be seperated by blank lines:


Current time: 14:09 Z
Result:

METAR KBFL 13rd @ 1354Z, wind calm, visibility 6 SM, Weather: mist, sky clear below 12,000, temperature 7, dewpoint 5, altimeter 30.11 inches, remarks: automated report w/precipitation discriminator, sea level pressure 1019.5 Mb, temp 6.7 dewpoint 5

METAR KBLH 13rd @ 1256Z, automated report, wind calm, visibility 10 SM, sky clear below 12,000, temperature 12, dewpoint 10, altimeter 30.09 inches, remarks: automated report w/precipitation discriminator, sea level pressure 1018.6 Mb, temp 11.7 dewpoint 10

METAR KPAO 13rd @ 0450Z, wind calm, visibility 15 SM, Sky: few clouds at 3000, broken at 20000, temperature 10, dewpoint 8, altimeter 30.11 inches

METAR KSFO 13rd @ 1256Z, wind calm, visibility 10 SM, Sky: scattered at 5500, scattered at 12000, temperature 11, dewpoint 11, altimeter 30.1 inches, remarks: automated report w/precipitation discriminator, sea level pressure 1019.1 Mb, temp 11.1 dewpoint 10.6, $

METAR KSJC 13rd @ 1353Z, wind from 190 at 3 KT, visibility 9 SM, Sky: few clouds at 3800, overcast at 4500, temperature 10, dewpoint 8, altimeter 30.09 inches, remarks: automated report w/precipitation discriminator, sea level pressure 1019 Mb, temp 10 dewpoint 8.3

METAR KTUS 13rd @ 1255Z, wind from 140 at 4 KT, visibility 10 SM, sky clear below 12,000, temperature 8, dewpoint 7, altimeter 30.14 inches, remarks: automated report w/precipitation discriminator, sea level pressure 1019 Mb, temp 8.3 dewpoint 7.2

METAR KWJF 11st @ 2050Z, wind from 030 at 11 KT, visibility 4 SM, Weather: rain, Sky: overcast at 1400, temperature 8, dewpoint 7, altimeter 29.86 inches